Time;durP1;ratioP1;P1;durP2;ratioP2;P2;SDS_P1;SDS_P2;PMS_P1;PMS_P2;Temp;Humidity;BMP_temperature;BMP_pressure;BME280_temperature;BME280_humidity;BME280_pressure;Samples;Min_cycle;Max_cycle;Signal;HPM_P1;HPM_P2
2023/10/31 00:00:50;;;;;;;33.78;13.65;;;;;;;9.45;100.00;98258.69;4990862;28;20037;-91
2023/10/31 00:03:16;;;;;;;48.50;17.33;;;;;;;9.45;100.00;98273.66;4981180;28;20130;-90
2023/10/31 00:05:42;;;;;;;61.67;18.67;;;;;;;9.42;100.00;98275.69;4996189;28;20108;-90
2023/10/31 00:08:08;;;;;;;77.78;18.55;;;;;;;9.40;100.00;98282.16;5005125;28;20034;-90
2023/10/31 00:10:34;;;;;;;39.88;17.55;;;;;;;9.37;100.00;98282.53;4971963;28;20087;-91
2023/10/31 00:13:00;;;;;;;37.75;20.17;;;;;;;9.37;100.00;98286.00;5004998;28;20073;-91
2023/10/31 00:15:26;;;;;;;32.17;17.95;;;;;;;9.36;100.00;98281.75;4989157;28;20070;-90
2023/10/31 00:17:52;;;;;;;23.00;17.95;;;;;;;9.38;100.00;98281.56;5005126;28;20081;-90
2023/10/31 00:20:18;;;;;;;19.88;13.30;;;;;;;9.36;100.00;98287.00;4990921;28;20037;-90
2023/10/31 00:22:43;;;;;;;57.38;18.77;;;;;;;9.40;100.00;98290.06;4988853;28;20038;-90
2023/10/31 00:25:09;;;;;;;40.58;16.70;;;;;;;9.39;100.00;98291.91;4974298;28;20413;-91
2023/10/31 00:27:35;;;;;;;34.83;16.52;;;;;;;9.40;100.00;98287.44;4987531;28;20032;-90
2023/10/31 00:30:01;;;;;;;61.33;19.70;;;;;;;9.43;100.00;98297.59;4986035;28;20049;-90
2023/10/31 00:32:32;;;;;;;58.35;19.02;;;;;;;9.48;100.00;98297.03;5008096;28;20042;-90
2023/10/31 00:34:58;;;;;;;71.38;21.33;;;;;;;9.45;100.00;98298.22;5003866;28;20451;-90
2023/10/31 00:37:23;;;;;;;84.35;22.27;;;;;;;9.43;100.00;98295.78;5006463;28;20076;-90
2023/10/31 00:39:49;;;;;;;68.47;18.88;;;;;;;9.43;100.00;98295.78;5009418;28;20037;-90
2023/10/31 00:42:15;;;;;;;91.90;20.95;;;;;;;9.44;100.00;98304.53;4993155;28;20061;-90
2023/10/31 00:44:40;;;;;;;102.80;22.20;;;;;;;9.46;100.00;98307.75;5006450;28;20034;-90
2023/10/31 00:47:06;;;;;;;172.32;22.70;;;;;;;9.45;100.00;98306.13;4989355;28;20419;-90
2023/10/31 00:49:34;;;;;;;129.10;23.10;;;;;;;9.46;100.00;98307.75;4997654;28;20034;-90
2023/10/31 00:52:00;;;;;;;261.15;26.10;;;;;;;9.47;100.00;98308.59;4980182;28;20073;-90
2023/10/31 00:54:26;;;;;;;140.77;24.88;;;;;;;9.42;100.00;98302.06;4977881;28;20533;-90
2023/10/31 00:56:51;;;;;;;105.32;23.95;;;;;;;9.45;100.00;98305.31;4976002;28;20151;-90
2023/10/31 00:59:17;;;;;;;51.53;20.63;;;;;;;9.43;100.00;98308.97;4973834;28;20038;-90
2023/10/31 01:01:43;;;;;;;68.60;22.35;;;;;;;9.45;100.00;98307.94;5002337;28;20132;-90
2023/10/31 01:04:10;;;;;;;92.30;23.02;;;;;;;9.43;100.00;98306.34;4998337;28;20405;-90
2023/10/31 01:06:43;;;;;;;49.20;19.95;;;;;;;9.49;100.00;98304.75;4983665;28;20038;-90
2023/10/31 01:09:13;;;;;;;92.93;24.38;;;;;;;9.51;100.00;98305.38;5015302;28;20124;-90
2023/10/31 01:11:39;;;;;;;43.92;20.90;;;;;;;9.47;100.00;98308.59;4992291;28;20060;-92
2023/10/31 01:14:04;;;;;;;58.83;22.52;;;;;;;9.48;100.00;98308.41;4993533;28;20054;-92
2023/10/31 01:16:30;;;;;;;45.78;21.45;;;;;;;9.49;100.00;98307.38;4999875;28;20077;-90
2023/10/31 01:18:56;;;;;;;37.35;18.05;;;;;;;9.51;100.00;98309.81;4977729;28;20041;-91
2023/10/31 01:21:21;;;;;;;56.88;17.38;;;;;;;9.53;100.00;98315.72;4992338;28;20166;-90
2023/10/31 01:23:47;;;;;;;69.43;17.55;;;;;;;9.55;100.00;98321.66;5003701;28;20029;-90
2023/10/31 01:26:14;;;;;;;30.05;16.38;;;;;;;9.51;100.00;98318.56;5004311;28;20492;-91
2023/10/31 01:28:39;;;;;;;65.65;15.60;;;;;;;9.54;100.00;98326.09;4997504;28;20033;-90
2023/10/31 01:31:06;;;;;;;66.40;17.25;;;;;;;9.55;100.00;98321.66;4989493;28;20034;-91
2023/10/31 01:33:31;;;;;;;29.45;14.27;;;;;;;9.55;100.00;98325.09;5006233;28;20478;-91
2023/10/31 01:35:57;;;;;;;18.48;13.45;;;;;;;9.57;100.00;98321.47;4994857;28;20049;-90
2023/10/31 01:38:23;;;;;;;39.40;14.25;;;;;;;9.54;100.00;98323.47;4992419;28;20041;-91
2023/10/31 01:40:50;;;;;;;45.85;13.45;;;;;;;9.59;100.00;98327.38;4974459;28;20029;-90
2023/10/31 01:43:35;;;;;;;23.77;12.70;;;;;;;9.62;100.00;98324.34;4986835;28;20037;-91
2023/10/31 01:46:01;;;;;;;32.83;13.00;;;;;;;9.53;100.00;98335.03;4992094;28;20037;-90
2023/10/31 01:48:29;;;;;;;33.42;12.15;;;;;;;9.53;100.00;98339.47;5006169;28;20062;-91
2023/10/31 01:50:57;;;;;;;30.48;13.05;;;;;;;9.54;100.00;98347.19;5011646;28;20106;-90
2023/10/31 01:53:25;;;;;;;27.70;12.57;;;;;;;9.52;100.00;98340.50;4966842;28;20034;-90
2023/10/31 01:55:53;;;;;;;43.75;13.57;;;;;;;9.52;100.00;98351.84;5007498;28;20462;-91
2023/10/31 01:58:23;;;;;;;63.83;14.18;;;;;;;9.53;100.00;98347.38;4993772;28;20087;-90
2023/10/31 02:00:50;;;;;;;72.72;14.82;;;;;;;9.52;100.00;98348.41;4991704;28;20037;-91
2023/10/31 02:03:17;;;;;;;51.88;13.48;;;;;;;9.49;100.00;98354.06;4993406;28;20041;-91
2023/10/31 02:05:43;;;;;;;54.88;13.55;;;;;;;9.45;100.00;98352.78;4993397;28;20034;-90
2023/10/31 02:08:10;;;;;;;81.97;14.48;;;;;;;9.45;100.00;98345.69;4974868;28;20100;-90
2023/10/31 02:10:36;;;;;;;30.48;12.65;;;;;;;9.46;100.00;98351.78;4992879;28;20034;-91
2023/10/31 02:13:16;;;;;;;28.42;12.00;;;;;;;9.53;100.00;98350.03;4972161;28;20390;-90
2023/10/31 02:15:42;;;;;;;38.08;12.23;;;;;;;9.45;100.00;98352.78;4993056;28;20034;-90
2023/10/31 02:18:08;;;;;;;19.33;10.45;;;;;;;9.45;100.00;98352.78;4989990;28;20486;-90
2023/10/31 02:20:34;;;;;;;11.93;9.95;;;;;;;9.46;100.00;98349.16;5009576;28;20104;-91
2023/10/31 02:23:00;;;;;;;33.63;12.27;;;;;;;9.49;100.00;98354.06;4997894;28;20076;-90
2023/10/31 02:25:26;;;;;;;29.92;11.10;;;;;;;9.46;100.00;98349.94;4985269;28;20026;-91
2023/10/31 02:27:52;;;;;;;18.73;10.25;;;;;;;9.47;100.00;98350.78;5007079;28;20037;-91
2023/10/31 02:30:19;;;;;;;32.38;10.82;;;;;;;9.49;100.00;98346.94;4975003;28;20046;-90
2023/10/31 02:32:45;;;;;;;27.75;10.75;;;;;;;9.47;100.00;98348.97;4989433;28;20113;-91
2023/10/31 02:35:12;;;;;;;23.45;10.98;;;;;;;9.49;100.00;98354.06;4976031;28;20125;-91
2023/10/31 02:37:37;;;;;;;24.08;10.90;;;;;;;9.49;100.00;98356.69;5005977;28;20033;-90
2023/10/31 02:40:04;;;;;;;29.30;9.77;;;;;;;9.48;100.00;98350.59;4980041;28;20045;-89
2023/10/31 02:42:30;;;;;;;16.60;9.95;;;;;;;9.49;100.00;98352.22;4989611;28;20041;-92
2023/10/31 02:44:56;;;;;;;20.60;9.88;;;;;;;9.51;100.00;98359.94;4990122;28;20405;-91
2023/10/31 02:47:22;;;;;;;40.40;10.55;;;;;;;9.48;100.00;98355.88;4988000;28;20036;-91
2023/10/31 02:49:47;;;;;;;19.02;9.90;;;;;;;9.48;100.00;98352.41;4989788;28;20058;-89
2023/10/31 02:52:13;;;;;;;15.95;10.40;;;;;;;9.44;100.00;98346.72;4970020;28;20097;-90
2023/10/31 02:54:39;;;;;;;32.13;10.52;;;;;;;9.52;100.00;98364.22;5001288;28;20495;-90
2023/10/31 02:57:05;;;;;;;39.50;10.95;;;;;;;9.50;100.00;98363.59;4973685;28;20049;-91
2023/10/31 02:59:31;;;;;;;35.80;10.98;;;;;;;9.47;100.00;98354.25;4976714;28;20149;-89
2023/10/31 03:01:57;;;;;;;26.35;10.90;;;;;;;9.48;100.00;98358.50;4992371;28;20096;-91
2023/10/31 03:04:23;;;;;;;32.83;11.05;;;;;;;9.52;100.00;98365.00;4990093;28;20143;-91
2023/10/31 03:06:50;;;;;;;28.83;11.43;;;;;;;9.46;100.00;98354.44;4988721;28;20129;-89
2023/10/31 03:09:15;;;;;;;23.80;11.23;;;;;;;9.51;100.00;98357.28;5008418;28;20389;-90
2023/10/31 03:11:41;;;;;;;29.40;10.40;;;;;;;9.50;100.00;98368.84;4990904;28;20061;-91
2023/10/31 03:14:07;;;;;;;27.00;10.45;;;;;;;9.48;100.00;98355.03;4984014;28;20104;-90
2023/10/31 03:16:33;;;;;;;34.58;11.50;;;;;;;9.47;100.00;98351.59;4993190;28;20564;-91
2023/10/31 03:18:59;;;;;;;15.13;10.25;;;;;;;9.46;100.00;98357.06;5005057;28;20538;-90
2023/10/31 03:21:25;;;;;;;19.45;9.45;;;;;;;9.44;100.00;98359.91;4994533;28;20410;-91
2023/10/31 03:23:52;;;;;;;16.50;8.90;;;;;;;9.43;100.00;98351.16;4976237;28;20092;-91
2023/10/31 03:26:19;;;;;;;33.92;8.85;;;;;;;9.43;100.00;98358.25;4991302;28;20100;-91
2023/10/31 03:28:45;;;;;;;80.85;9.60;;;;;;;9.42;100.00;98353.97;4997053;28;20049;-91
2023/10/31 03:31:15;;;;;;;23.83;8.65;;;;;;;9.42;100.00;98352.16;5008202;28;20574;-91
2023/10/31 03:33:41;;;;;;;27.40;8.20;;;;;;;9.39;100.00;98355.19;4991869;28;20491;-90
2023/10/31 03:36:08;;;;;;;32.78;7.40;;;;;;;9.36;100.00;98354.75;4977207;28;20121;-90
2023/10/31 03:38:34;;;;;;;64.75;8.20;;;;;;;9.34;100.00;98351.47;4972954;28;20026;-90
2023/10/31 03:41:01;;;;;;;60.53;7.35;;;;;;;9.31;100.00;98357.94;4986248;28;20038;-91
2023/10/31 03:43:26;;;;;;;87.97;7.35;;;;;;;9.25;100.00;98354.22;4981082;28;20065;-90
2023/10/31 03:45:52;;;;;;;46.72;6.88;;;;;;;9.21;100.00;98354.78;4985846;28;20107;-91
2023/10/31 03:48:18;;;;;;;70.07;7.55;;;;;;;9.17;100.00;98370.19;4989946;28;20383;-78
2023/10/31 03:50:44;;;;;;;84.93;7.57;;;;;;;9.11;100.00;98366.44;4990612;28;20038;-90
2023/10/31 03:53:10;;;;;;;44.20;7.25;;;;;;;9.09;100.00;98371.09;4997473;28;20069;-90
2023/10/31 03:55:36;;;;;;;58.10;9.05;;;;;;;9.06;100.00;98372.28;4994617;28;20394;-90
2023/10/31 03:58:02;;;;;;;63.67;7.50;;;;;;;9.02;100.00;98376.28;4995993;28;20473;-90
2023/10/31 04:00:27;;;;;;;40.38;7.45;;;;;;;9.00;100.00;98378.28;4992885;28;20041;-90
2023/10/31 04:02:53;;;;;;;72.95;8.43;;;;;;;8.98;100.00;98380.28;4971916;28;20030;-91
2023/10/31 04:05:19;;;;;;;69.93;7.53;;;;;;;8.96;100.00;98382.31;5010757;28;20080;-90
2023/10/31 04:07:46;;;;;;;137.77;9.20;;;;;;;8.96;100.00;98384.13;4994100;28;20037;-90
2023/10/31 04:10:12;;;;;;;136.93;8.48;;;;;;;8.89;100.00;98394.56;5012761;28;20041;-90
2023/10/31 04:12:39;;;;;;;72.90;7.75;;;;;;;8.86;100.00;98395.78;4976987;28;20033;-90
2023/10/31 04:15:05;;;;;;;89.68;7.80;;;;;;;8.86;100.00;98400.22;4977323;28;20105;-90
2023/10/31 04:17:31;;;;;;;109.60;9.55;;;;;;;8.83;100.00;98401.41;5012706;28;20037;-90
2023/10/31 04:19:56;;;;;;;116.30;9.70;;;;;;;8.80;100.00;98402.59;4996166;28;20034;-89
2023/10/31 04:22:22;;;;;;;64.32;7.93;;;;;;;8.80;100.00;98407.03;4996719;28;20084;-90
2023/10/31 04:24:48;;;;;;;74.50;8.05;;;;;;;8.80;100.00;98412.31;5016864;28;20061;-90
2023/10/31 04:27:14;;;;;;;82.82;7.32;;;;;;;8.81;100.00;98406.03;4991425;28;20133;-90
2023/10/31 04:29:39;;;;;;;71.55;6.95;;;;;;;8.85;100.00;98412.59;4991306;28;20041;-90
2023/10/31 04:32:05;;;;;;;72.25;6.68;;;;;;;8.87;100.00;98407.13;5001332;28;20057;-91
2023/10/31 04:34:31;;;;;;;31.73;6.07;;;;;;;8.89;100.00;98407.75;4994019;28;20029;-90
2023/10/31 04:36:57;;;;;;;111.68;9.23;;;;;;;8.84;100.00;98395.13;5007267;28;20034;-90
2023/10/31 04:39:24;;;;;;;131.95;7.32;;;;;;;8.86;100.00;98397.56;4999775;28;20367;-90
2023/10/31 04:41:49;;;;;;;131.07;7.30;;;;;;;8.82;100.00;98399.78;4988411;28;20045;-90
2023/10/31 04:44:16;;;;;;;17.75;5.47;;;;;;;8.83;100.00;98409.31;5011295;28;20033;-90
2023/10/31 04:46:42;;;;;;;72.05;6.53;;;;;;;8.84;100.00;98413.56;5011439;28;20652;-90
2023/10/31 04:49:08;;;;;;;179.95;8.25;;;;;;;8.80;100.00;98415.78;4978587;28;20470;-90
2023/10/31 04:51:35;;;;;;;45.88;6.18;;;;;;;8.80;100.00;98420.22;5010222;28;20477;-90
2023/10/31 04:54:01;;;;;;;24.52;6.20;;;;;;;8.76;100.00;98424.22;5013548;28;20070;-89
2023/10/31 04:56:27;;;;;;;29.85;6.15;;;;;;;8.75;100.00;98422.56;5000251;28;20517;-88
2023/10/31 04:58:52;;;;;;;18.00;6.07;;;;;;;8.71;100.00;98427.41;4963921;28;20042;-90
2023/10/31 05:01:19;;;;;;;57.53;7.00;;;;;;;8.65;100.00;98423.66;4989252;28;20073;-89
2023/10/31 05:03:45;;;;;;;87.68;7.10;;;;;;;8.61;100.00;98432.94;4993623;28;20056;-89
2023/10/31 05:06:11;;;;;;;23.33;6.30;;;;;;;8.56;100.00;98428.22;4991854;28;20037;-90
2023/10/31 05:08:37;;;;;;;25.92;6.07;;;;;;;8.59;100.00;98439.38;4998000;28;20041;-90
2023/10/31 05:11:02;;;;;;;56.13;7.30;;;;;;;8.61;100.00;98432.13;4993275;28;20410;-89
2023/10/31 05:13:28;;;;;;;53.15;7.07;;;;;;;8.59;100.00;98442.00;4993621;28;20083;-90
2023/10/31 05:15:54;;;;;;;112.40;8.00;;;;;;;8.60;100.00;98441.03;4968040;28;20380;-90
2023/10/31 05:18:20;;;;;;;118.95;6.63;;;;;;;8.59;100.00;98440.19;4994153;28;20070;-90
2023/10/31 05:20:46;;;;;;;49.78;5.28;;;;;;;8.54;100.00;98447.78;4976925;28;20033;-90
2023/10/31 05:23:12;;;;;;;82.97;6.18;;;;;;;8.49;100.00;98452.78;4984513;28;20452;-90
2023/10/31 05:25:38;;;;;;;53.95;5.72;;;;;;;8.44;100.00;98459.41;4994281;28;20125;-90
2023/10/31 05:28:04;;;;;;;42.42;5.72;;;;;;;8.43;100.00;98457.78;4979126;28;20034;-90
2023/10/31 05:30:30;;;;;;;48.97;5.28;;;;;;;8.42;100.00;98450.06;5000058;28;20121;-90
2023/10/31 05:32:56;;;;;;;26.35;4.85;;;;;;;8.40;100.00;98457.31;5009500;28;20038;-90
2023/10/31 05:35:22;;;;;;;13.07;5.07;;;;;;;8.41;100.00;98458.94;4992375;28;20044;-89
2023/10/31 05:37:48;;;;;;;14.95;4.15;;;;;;;8.40;100.00;98458.13;5009546;28;20039;-90
2023/10/31 05:40:15;;;;;;;9.88;3.85;;;;;;;8.43;100.00;98460.41;4973440;28;20042;-89
2023/10/31 05:42:41;;;;;;;4.05;3.67;;;;;;;8.35;100.00;98457.84;4986205;28;20079;-89
2023/10/31 05:45:06;;;;;;;8.93;3.65;;;;;;;8.32;100.00;98464.28;4993405;28;20367;-90
2023/10/31 05:47:35;;;;;;;5.40;3.33;;;;;;;8.26;100.00;98451.03;4977743;28;20038;-90
2023/10/31 05:50:01;;;;;;;3.20;2.90;;;;;;;8.26;100.00;98464.19;4992480;28;20041;-90
2023/10/31 05:52:30;;;;;;;3.28;2.97;;;;;;;8.27;100.00;98464.00;4987414;28;20038;-90
2023/10/31 05:54:56;;;;;;;3.85;3.13;;;;;;;8.24;100.00;98474.88;5006799;28;20045;-90
2023/10/31 05:57:21;;;;;;;3.20;2.90;;;;;;;8.19;100.00;98467.53;4993086;28;20486;-90
2023/10/31 05:59:47;;;;;;;5.63;3.22;;;;;;;8.16;100.00;98472.31;4988783;28;20034;-90
2023/10/31 06:02:14;;;;;;;5.05;4.07;;;;;;;8.16;100.00;98472.31;5009659;28;20386;-90
2023/10/31 06:04:39;;;;;;;8.90;4.18;;;;;;;8.12;100.00;98479.75;4991784;28;20124;-90
2023/10/31 06:07:06;;;;;;;4.05;3.38;;;;;;;8.13;100.00;98481.41;4986129;28;20460;-91
2023/10/31 06:09:33;;;;;;;60.58;4.63;;;;;;;8.11;100.00;98477.28;4988335;28;20052;-90
2023/10/31 06:12:02;;;;;;;69.25;4.38;;;;;;;8.12;100.00;98474.47;4957709;28;20045;-90
2023/10/31 06:14:27;;;;;;;69.78;4.57;;;;;;;8.05;100.00;98474.41;4990421;28;20034;-89
2023/10/31 06:16:54;;;;;;;38.15;3.58;;;;;;;8.02;100.00;98466.84;4981071;28;20042;-89
2023/10/31 06:19:20;;;;;;;76.07;4.03;;;;;;;8.02;100.00;98471.28;4991432;28;20049;-89
2023/10/31 06:21:46;;;;;;;66.63;4.30;;;;;;;8.01;100.00;98475.72;4990109;28;20068;-90
2023/10/31 06:24:11;;;;;;;86.70;4.60;;;;;;;8.00;100.00;98482.00;4992805;28;20037;-89
2023/10/31 06:26:37;;;;;;;59.53;4.22;;;;;;;8.00;100.00;98483.78;4990763;28;20121;-89
2023/10/31 06:29:03;;;;;;;38.60;3.95;;;;;;;8.01;100.00;98488.09;4957982;28;20505;-89
2023/10/31 06:31:29;;;;;;;81.43;3.95;;;;;;;8.04;100.00;98495.63;4985067;28;20033;-89
2023/10/31 06:33:54;;;;;;;35.40;4.20;;;;;;;8.01;100.00;98491.50;4990666;28;20034;-90
2023/10/31 06:36:20;;;;;;;18.75;3.60;;;;;;;8.01;100.00;98496.78;5010837;28;20037;-80
2023/10/31 06:38:46;;;;;;;75.70;4.25;;;;;;;8.02;100.00;98500.22;5009711;28;20084;-90
2023/10/31 06:41:11;;;;;;;60.40;4.65;;;;;;;7.98;100.00;98498.94;4974950;28;20045;-89
2023/10/31 06:43:37;;;;;;;32.28;3.67;;;;;;;8.00;100.00;98505.66;4993434;28;20046;-77
2023/10/31 06:46:05;;;;;;;38.42;3.95;;;;;;;8.02;100.00;98510.75;4973431;28;20038;-90
2023/10/31 06:48:30;;;;;;;83.65;4.82;;;;;;;8.00;100.00;98508.31;4997593;28;20525;-90
2023/10/31 06:50:56;;;;;;;70.35;4.18;;;;;;;7.97;100.00;98513.09;4990867;28;20108;-90
2023/10/31 06:53:21;;;;;;;106.85;4.97;;;;;;;7.89;100.00;98511.34;4967113;28;20042;-90
2023/10/31 06:55:48;;;;;;;27.67;3.50;;;;;;;7.81;100.00;98509.56;5008190;28;20084;-89
2023/10/31 06:58:14;;;;;;;38.13;4.70;;;;;;;7.80;100.00;98508.75;5018516;28;20475;-90
2023/10/31 07:00:39;;;;;;;55.42;3.80;;;;;;;7.81;100.00;98506.94;4988172;28;20034;-90
2023/10/31 07:03:09;;;;;;;68.15;3.63;;;;;;;7.78;100.00;98508.13;4983638;28;20414;-90
2023/10/31 07:05:37;;;;;;;169.45;5.45;;;;;;;7.76;100.00;98512.72;4991715;28;20033;-90
2023/10/31 07:08:04;;;;;;;78.20;3.83;;;;;;;7.65;100.00;98527.09;4984668;28;20049;-90
2023/10/31 07:10:30;;;;;;;31.13;3.20;;;;;;;7.59;100.00;98532.22;4999947;28;20176;-89
2023/10/31 07:12:55;;;;;;;62.00;3.50;;;;;;;7.56;100.00;98530.75;4973073;28;20034;-90
2023/10/31 07:15:21;;;;;;;63.78;3.40;;;;;;;7.49;100.00;98521.91;5000177;28;20038;-82
2023/10/31 07:17:47;;;;;;;22.25;2.70;;;;;;;7.48;100.00;98529.00;4986417;28;20545;-89
2023/10/31 07:20:13;;;;;;;22.15;2.75;;;;;;;7.44;100.00;98531.13;4977940;28;20113;-90
2023/10/31 07:22:39;;;;;;;26.23;3.00;;;;;;;7.45;100.00;98535.41;4975903;28;20124;-89
2023/10/31 07:25:06;;;;;;;9.68;2.85;;;;;;;7.42;100.00;98530.47;4975646;28;20124;-90
2023/10/31 07:27:32;;;;;;;15.43;2.60;;;;;;;7.47;100.00;98534.44;4990802;28;20121;-90
2023/10/31 07:29:58;;;;;;;8.10;2.42;;;;;;;7.48;100.00;98536.88;4978116;28;20042;-90
2023/10/31 07:32:24;;;;;;;32.80;3.20;;;;;;;7.49;100.00;98537.69;4974901;28;20483;-91
2023/10/31 07:34:50;;;;;;;34.90;3.13;;;;;;;7.49;100.00;98537.69;4975036;28;20402;-90
2023/10/31 07:37:16;;;;;;;30.23;3.47;;;;;;;7.51;100.00;98548.84;5011670;28;20115;-90
2023/10/31 07:39:42;;;;;;;18.75;2.70;;;;;;;7.52;100.00;98550.47;4980284;28;20042;-90
2023/10/31 07:42:08;;;;;;;18.45;2.53;;;;;;;7.53;100.00;98557.41;4979935;28;20033;-90
2023/10/31 07:44:34;;;;;;;7.65;2.50;;;;;;;7.53;100.00;98557.41;4984456;28;20049;-88
2023/10/31 07:47:00;;;;;;;5.70;2.28;;;;;;;7.51;100.00;98560.19;4997275;28;20038;-89
2023/10/31 07:49:26;;;;;;;4.78;2.80;;;;;;;7.56;100.00;98562.31;4986099;28;20049;-90
2023/10/31 07:51:52;;;;;;;3.08;2.65;;;;;;;7.60;100.00;98562.81;5003895;28;20041;-90
2023/10/31 07:54:18;;;;;;;2.83;2.45;;;;;;;7.61;100.00;98569.69;5022084;28;20137;-90
2023/10/31 07:56:44;;;;;;;3.03;2.60;;;;;;;7.64;100.00;98569.34;5012291;28;20030;-90
2023/10/31 07:59:10;;;;;;;4.63;2.70;;;;;;;7.67;100.00;98576.88;4995913;28;20030;-90
2023/10/31 08:01:39;;;;;;;2.58;2.38;;;;;;;7.66;100.00;98567.38;4995249;28;20045;-90
2023/10/31 08:04:05;;;;;;;2.65;2.45;;;;;;;7.71;100.00;98564.22;4980028;28;20092;-90
2023/10/31 08:06:30;;;;;;;3.00;2.70;;;;;;;7.72;100.00;98566.69;4994243;28;20042;-90
2023/10/31 08:08:56;;;;;;;2.65;2.30;;;;;;;7.71;100.00;98559.75;4995665;28;20464;-89
2023/10/31 08:11:22;;;;;;;4.57;2.45;;;;;;;7.74;100.00;98569.13;4994901;28;20442;-90
2023/10/31 08:13:48;;;;;;;2.63;2.25;;;;;;;7.68;100.00;98566.19;4996315;28;20055;-90
2023/10/31 08:16:19;;;;;;;3.17;2.88;;;;;;;7.74;100.00;98575.19;4992198;28;20097;-90
2023/10/31 08:18:52;;;;;;;2.25;1.80;;;;;;;7.72;100.00;98569.31;5006481;28;20049;-89
2023/10/31 08:21:18;;;;;;;4.40;2.13;;;;;;;7.74;100.00;98577.81;4981546;28;20068;-90
2023/10/31 08:23:46;;;;;;;4.10;1.80;;;;;;;7.79;100.00;98578.13;4995180;28;20041;-89
2023/10/31 08:26:18;;;;;;;2.10;1.90;;;;;;;7.82;100.00;98582.22;4992500;28;20084;-90
2023/10/31 08:28:47;;;;;;;8.07;1.60;;;;;;;7.83;100.00;98586.50;4980838;28;20558;-89
2023/10/31 08:31:12;;;;;;;2.78;1.92;;;;;;;7.81;100.00;98584.06;4994724;28;20034;-90
2023/10/31 08:33:38;;;;;;;2.30;1.90;;;;;;;7.87;100.00;98592.25;4990174;28;20034;-90
2023/10/31 08:36:06;;;;;;;2.63;1.77;;;;;;;7.89;100.00;98590.25;4992733;28;20049;-90
2023/10/31 08:38:32;;;;;;;2.25;2.05;;;;;;;7.89;100.00;98604.22;4983736;28;20041;-90
2023/10/31 08:41:00;;;;;;;2.78;2.15;;;;;;;7.90;100.00;98591.91;4991833;28;20030;-90
2023/10/31 08:43:26;;;;;;;2.33;2.10;;;;;;;7.92;100.00;98597.78;4992197;28;20038;-90
2023/10/31 08:45:52;;;;;;;2.38;2.13;;;;;;;7.90;100.00;98605.06;5013444;28;20040;-90
2023/10/31 08:48:18;;;;;;;2.30;2.10;;;;;;;7.95;100.00;98597.44;4993191;28;20407;-90
2023/10/31 08:50:43;;;;;;;2.65;1.80;;;;;;;7.99;100.00;98592.66;4976774;28;20046;-90
2023/10/31 08:53:09;;;;;;;2.50;2.00;;;;;;;8.07;100.00;98601.31;5007726;28;20045;-90
2023/10/31 08:55:35;;;;;;;3.25;1.63;;;;;;;8.14;100.00;98608.50;4986466;28;20188;-91
2023/10/31 08:58:01;;;;;;;2.22;1.90;;;;;;;8.19;100.00;98603.56;4993687;28;20037;-90
2023/10/31 09:00:28;;;;;;;1.85;1.75;;;;;;;8.24;100.00;98610.94;4968276;28;20478;-90
2023/10/31 09:02:54;;;;;;;2.75;1.88;;;;;;;8.27;100.00;98615.84;4983079;28;20034;-90
2023/10/31 09:05:19;;;;;;;1.90;1.60;;;;;;;8.27;100.00;98621.09;4992090;28;20076;-90
2023/10/31 09:07:45;;;;;;;1.98;1.77;;;;;;;8.25;100.00;98616.00;5003848;28;20398;-90
2023/10/31 09:10:12;;;;;;;2.17;1.70;;;;;;;8.23;100.00;98623.28;4991624;28;20110;-90
2023/10/31 09:12:38;;;;;;;2.88;1.83;;;;;;;8.20;100.00;98628.91;4980609;28;20413;-91
2023/10/31 09:15:04;;;;;;;2.92;2.00;;;;;;;8.21;100.00;98634.97;4993092;28;20030;-90
2023/10/31 09:17:30;;;;;;;3.35;1.63;;;;;;;8.15;100.00;98625.97;4993184;28;20068;-89
2023/10/31 09:19:56;;;;;;;2.67;2.10;;;;;;;8.12;100.00;98621.03;4976900;28;20041;-90
2023/10/31 09:22:21;;;;;;;2.83;2.00;;;;;;;8.10;100.00;98621.22;4969284;28;20041;-90
2023/10/31 09:24:47;;;;;;;2.42;2.05;;;;;;;8.13;100.00;98626.13;4995912;28;20037;-90
2023/10/31 09:27:13;;;;;;;2.88;2.00;;;;;;;8.14;100.00;98626.94;4975847;28;20037;-90
2023/10/31 09:29:38;;;;;;;3.28;2.33;;;;;;;8.18;100.00;98628.25;5010867;28;20556;-90
2023/10/31 09:32:06;;;;;;;3.38;2.22;;;;;;;8.22;100.00;98632.16;5003344;28;20034;-90
2023/10/31 09:34:31;;;;;;;2.22;2.03;;;;;;;8.27;100.00;98629.81;4992817;28;20398;-90
2023/10/31 09:36:58;;;;;;;3.45;2.20;;;;;;;8.34;100.00;98637.03;4991282;28;20043;-90
2023/10/31 09:39:24;;;;;;;5.45;2.17;;;;;;;8.38;100.00;98635.66;4975302;28;20381;-90
2023/10/31 09:41:50;;;;;;;2.92;1.58;;;;;;;8.44;100.00;98637.63;4975850;28;20048;-90
2023/10/31 09:44:15;;;;;;;3.55;2.10;;;;;;;8.48;100.00;98628.38;4997854;28;20034;-89
2023/10/31 09:46:41;;;;;;;4.45;2.05;;;;;;;8.56;100.00;98635.44;4973982;28;20038;-89
2023/10/31 09:49:08;;;;;;;3.03;2.08;;;;;;;8.66;100.00;98640.47;4971030;28;20026;-89
2023/10/31 09:51:34;;;;;;;2.50;1.98;;;;;;;8.71;100.00;98639.94;4975779;28;20386;-90
2023/10/31 09:54:03;;;;;;;3.67;2.15;;;;;;;8.79;100.00;98637.22;5008938;28;20034;-90
2023/10/31 09:56:34;;;;;;;4.57;2.10;;;;;;;8.79;100.00;98632.75;5008122;28;20037;-90
2023/10/31 09:59:00;;;;;;;4.15;2.08;;;;;;;8.86;100.00;98635.50;5003329;28;20045;-90
2023/10/31 10:01:26;;;;;;;6.57;1.80;;;;;;;8.86;100.00;98640.78;4982759;28;20095;-90
2023/10/31 10:03:53;;;;;;;2.75;2.03;;;;;;;8.93;100.00;98646.16;4974054;28;20041;-90
2023/10/31 10:06:21;;;;;;;5.78;2.10;;;;;;;9.00;100.00;98644.44;4991553;28;20103;-89
2023/10/31 10:08:47;;;;;;;3.80;2.10;;;;;;;9.04;100.00;98643.09;4973405;28;20160;-89
2023/10/31 10:11:12;;;;;;;3.45;2.33;;;;;;;9.12;100.00;98636.09;4977045;28;20124;-89
2023/10/31 10:13:38;;;;;;;7.65;2.10;;;;;;;9.23;100.00;98640.13;4990116;28;20124;-90
2023/10/31 10:16:04;;;;;;;3.28;1.90;;;;;;;9.28;100.00;98635.13;4997324;28;20038;-90
2023/10/31 10:18:35;;;;;;;2.53;1.70;;;;;;;9.39;100.00;98637.31;4973473;28;20415;-90
2023/10/31 10:21:05;;;;;;;2.83;1.80;;;;;;;9.47;100.00;98641.69;4990843;28;20041;-89
2023/10/31 10:23:32;;;;;;;1.88;1.70;;;;;;;9.50;100.00;98637.84;5002637;28;20069;-89
2023/10/31 10:26:00;;;;;;;2.92;1.77;;;;;;;9.57;100.00;98648.50;4985128;28;20052;-90
2023/10/31 10:28:26;;;;;;;2.28;2.08;;;;;;;9.59;100.00;98641.25;4990411;28;20038;-90
2023/10/31 10:30:55;;;;;;;2.25;2.05;;;;;;;9.62;100.00;98641.66;4986511;28;20038;-90
2023/10/31 10:33:21;;;;;;;3.47;1.73;;;;;;;9.61;100.00;98636.56;5005679;28;20042;-90
2023/10/31 10:35:47;;;;;;;2.67;2.00;;;;;;;9.62;100.00;98635.59;4983966;28;20040;-89
2023/10/31 10:38:16;;;;;;;2.25;1.98;;;;;;;9.64;100.00;98642.31;4984311;28;20033;-90
2023/10/31 10:40:48;;;;;;;3.97;1.90;;;;;;;9.64;100.00;98639.69;4990255;28;20161;-90
2023/10/31 10:43:23;;;;;;;5.13;2.03;;;;;;;9.66;100.00;98635.03;4980102;28;20049;-90
2023/10/31 10:45:57;;;;;;;5.40;2.10;;;;;;;9.67;100.00;98635.84;4991966;28;20068;-90
2023/10/31 10:48:27;;;;;;;2.20;1.70;;;;;;;9.70;100.00;98634.69;5007357;28;20030;-90
2023/10/31 10:51:06;;;;;;;2.05;1.63;;;;;;;9.79;100.00;98641.50;4969590;28;20121;-91
2023/10/31 10:53:44;;;;;;;3.53;2.00;;;;;;;9.79;100.00;98630.94;4989117;28;20372;-90
2023/10/31 10:56:33;;;;;;;3.08;1.40;;;;;;;9.77;100.00;98631.13;4985453;28;20041;-90
2023/10/31 10:59:30;;;;;;;3.25;2.30;;;;;;;9.84;100.00;98633.00;4975393;28;20037;-90
2023/10/31 11:01:58;;;;;;;1.98;1.55;;;;;;;9.78;100.00;98632.75;4996513;28;20045;-90
2023/10/31 11:04:24;;;;;;;2.88;1.60;;;;;;;9.80;100.00;98633.38;4989121;28;20122;-90
2023/10/31 11:06:50;;;;;;;4.43;1.58;;;;;;;9.85;100.00;98632.00;4975691;28;20096;-90
2023/10/31 11:09:17;;;;;;;2.95;1.55;;;;;;;9.88;100.00;98634.28;4973186;28;20042;-90
2023/10/31 11:11:48;;;;;;;2.95;1.27;;;;;;;9.93;100.00;98619.53;4970566;28;20095;-90
2023/10/31 11:14:16;;;;;;;3.22;1.50;;;;;;;10.03;100.00;98631.63;4990957;28;20095;-90
2023/10/31 11:16:52;;;;;;;2.78;1.75;;;;;;;10.10;100.00;98632.50;4977380;28;20030;-90
2023/10/31 11:19:18;;;;;;;;;;;;;;;10.00;100.00;98614.31;4986702;28;20053;-92
2023/10/31 11:22:01;;;;;;;4.15;1.90;;;;;;;10.04;100.00;98620.03;4974779;28;19917;-92
2023/10/31 11:24:30;;;;;;;3.72;1.90;;;;;;;10.03;100.00;98616.56;4984284;28;20539;-90